Vernon, Vermont
Current Conditions -  °F | °C
As of 3:35 AM on Tuesday 27 Jan 2015 (Local Time) from KEEN Reporting Station
Overcast Overcast  
Wind Chill: -3°   Ceiling: 1200
Heat Index: 14°   Visibility: 1.2mi
Dew Point:   Wind: 17mph
Humidity: 79%   Direction: 10°N
Pressure: 29.81"   Gusts: 25mph
Location:  42.76°N, 72.51°W
Report Text: KEEN 270835Z AUTO 01015G22KT 1 1/4SM OVC012 M10/M13 A2981 RMK AO1
Loading
Personal Weather Stations






























Interactive Weather Map New forecast layout! Learn more

10-Day Weather Forecast

Advertisements
Track Severe Weather on mobile